sensor_id;sensor_type;location;lat;lon;timestamp;P1;durP1;ratioP1;P2;durP2;ratioP2
21239;SDS011;10778;48.962;9.018;2022-10-31T00:01:17;19.95;;;7.85;;
21239;SDS011;10778;48.962;9.018;2022-10-31T00:03:48;15.98;;;7.72;;
21239;SDS011;10778;48.962;9.018;2022-10-31T00:06:15;16.95;;;8.07;;
21239;SDS011;10778;48.962;9.018;2022-10-31T00:08:47;13.63;;;7.80;;
21239;SDS011;10778;48.962;9.018;2022-10-31T00:11:17;13.27;;;7.32;;
21239;SDS011;10778;48.962;9.018;2022-10-31T00:13:43;15.13;;;7.75;;
21239;SDS011;10778;48.962;9.018;2022-10-31T00:16:13;14.93;;;7.72;;
21239;SDS011;10778;48.962;9.018;2022-10-31T00:18:40;13.65;;;7.53;;
21239;SDS011;10778;48.962;9.018;2022-10-31T00:21:06;12.50;;;7.93;;
21239;SDS011;10778;48.962;9.018;2022-10-31T00:23:32;13.23;;;7.93;;
21239;SDS011;10778;48.962;9.018;2022-10-31T00:26:02;16.20;;;8.45;;
21239;SDS011;10778;48.962;9.018;2022-10-31T00:28:29;15.30;;;8.50;;
21239;SDS011;10778;48.962;9.018;2022-10-31T00:31:03;14.52;;;8.10;;
21239;SDS011;10778;48.962;9.018;2022-10-31T00:33:32;13.27;;;8.40;;
21239;SDS011;10778;48.962;9.018;2022-10-31T00:36:00;14.32;;;8.57;;
21239;SDS011;10778;48.962;9.018;2022-10-31T00:38:26;15.15;;;8.10;;
21239;SDS011;10778;48.962;9.018;2022-10-31T00:40:52;12.98;;;8.02;;
21239;SDS011;10778;48.962;9.018;2022-10-31T00:43:18;12.15;;;7.63;;
21239;SDS011;10778;48.962;9.018;2022-10-31T00:45:44;11.60;;;7.65;;
21239;SDS011;10778;48.962;9.018;2022-10-31T00:48:11;13.73;;;7.03;;
21239;SDS011;10778;48.962;9.018;2022-10-31T00:50:37;12.18;;;7.63;;
21239;SDS011;10778;48.962;9.018;2022-10-31T00:53:04;12.98;;;7.25;;
21239;SDS011;10778;48.962;9.018;2022-10-31T00:55:30;12.13;;;7.03;;
21239;SDS011;10778;48.962;9.018;2022-10-31T00:57:56;12.60;;;7.78;;
21239;SDS011;10778;48.962;9.018;2022-10-31T01:00:22;12.85;;;8.27;;
21239;SDS011;10778;48.962;9.018;2022-10-31T01:02:49;15.25;;;8.55;;
21239;SDS011;10778;48.962;9.018;2022-10-31T01:05:15;15.05;;;9.20;;
21239;SDS011;10778;48.962;9.018;2022-10-31T01:07:43;15.10;;;8.30;;
21239;SDS011;10778;48.962;9.018;2022-10-31T01:10:09;14.65;;;8.60;;
21239;SDS011;10778;48.962;9.018;2022-10-31T01:12:39;14.75;;;8.55;;
21239;SDS011;10778;48.962;9.018;2022-10-31T01:15:07;14.27;;;8.02;;
21239;SDS011;10778;48.962;9.018;2022-10-31T01:17:34;14.43;;;8.38;;
21239;SDS011;10778;48.962;9.018;2022-10-31T01:20:00;12.63;;;7.97;;
21239;SDS011;10778;48.962;9.018;2022-10-31T01:22:27;12.00;;;7.72;;
21239;SDS011;10778;48.962;9.018;2022-10-31T01:24:53;14.15;;;8.40;;
21239;SDS011;10778;48.962;9.018;2022-10-31T01:27:19;14.80;;;9.15;;
21239;SDS011;10778;48.962;9.018;2022-10-31T01:29:45;11.80;;;8.10;;
21239;SDS011;10778;48.962;9.018;2022-10-31T01:32:11;16.40;;;8.57;;
21239;SDS011;10778;48.962;9.018;2022-10-31T01:34:37;13.65;;;8.23;;
21239;SDS011;10778;48.962;9.018;2022-10-31T01:37:03;14.65;;;8.70;;
21239;SDS011;10778;48.962;9.018;2022-10-31T01:39:29;14.60;;;8.25;;
21239;SDS011;10778;48.962;9.018;2022-10-31T01:41:55;13.43;;;8.65;;
21239;SDS011;10778;48.962;9.018;2022-10-31T01:49:45;19.90;;;9.85;;
21239;SDS011;10778;48.962;9.018;2022-10-31T01:52:20;16.55;;;9.23;;
21239;SDS011;10778;48.962;9.018;2022-10-31T01:55:37;16.25;;;8.85;;
21239;SDS011;10778;48.962;9.018;2022-10-31T01:57:49;15.95;;;8.80;;
21239;SDS011;10778;48.962;9.018;2022-10-31T02:00:19;19.13;;;8.48;;
21239;SDS011;10778;48.962;9.018;2022-10-31T02:02:46;14.85;;;8.70;;
21239;SDS011;10778;48.962;9.018;2022-10-31T02:05:14;16.35;;;8.40;;
21239;SDS011;10778;48.962;9.018;2022-10-31T02:10:38;12.60;;;7.75;;
21239;SDS011;10778;48.962;9.018;2022-10-31T02:13:07;13.15;;;7.57;;
21239;SDS011;10778;48.962;9.018;2022-10-31T02:15:40;20.20;;;9.10;;
21239;SDS011;10778;48.962;9.018;2022-10-31T02:18:09;13.45;;;8.70;;
21239;SDS011;10778;48.962;9.018;2022-10-31T02:20:39;13.80;;;8.40;;
21239;SDS011;10778;48.962;9.018;2022-10-31T02:28:40;11.88;;;8.50;;
21239;SDS011;10778;48.962;9.018;2022-10-31T02:36:52;11.23;;;7.10;;
21239;SDS011;10778;48.962;9.018;2022-10-31T02:42:09;10.30;;;6.22;;
21239;SDS011;10778;48.962;9.018;2022-10-31T02:47:33;12.57;;;7.00;;
21239;SDS011;10778;48.962;9.018;2022-10-31T02:52:38;12.63;;;7.70;;
21239;SDS011;10778;48.962;9.018;2022-10-31T02:57:48;13.48;;;8.93;;
21239;SDS011;10778;48.962;9.018;2022-10-31T03:00:19;15.02;;;9.13;;
21239;SDS011;10778;48.962;9.018;2022-10-31T03:02:49;12.55;;;9.10;;
21239;SDS011;10778;48.962;9.018;2022-10-31T03:05:40;14.93;;;9.57;;
21239;SDS011;10778;48.962;9.018;2022-10-31T03:11:05;15.07;;;9.02;;
21239;SDS011;10778;48.962;9.018;2022-10-31T03:19:00;13.90;;;7.75;;
21239;SDS011;10778;48.962;9.018;2022-10-31T03:21:53;11.93;;;7.40;;
21239;SDS011;10778;48.962;9.018;2022-10-31T03:24:25;13.65;;;7.78;;
21239;SDS011;10778;48.962;9.018;2022-10-31T03:26:58;14.38;;;8.77;;
21239;SDS011;10778;48.962;9.018;2022-10-31T03:29:29;15.45;;;9.88;;
21239;SDS011;10778;48.962;9.018;2022-10-31T03:32:02;15.32;;;9.32;;
21239;SDS011;10778;48.962;9.018;2022-10-31T03:34:53;20.13;;;9.48;;
21239;SDS011;10778;48.962;9.018;2022-10-31T03:37:22;15.55;;;8.75;;
21239;SDS011;10778;48.962;9.018;2022-10-31T03:39:52;14.70;;;7.80;;
21239;SDS011;10778;48.962;9.018;2022-10-31T03:42:23;11.82;;;7.30;;
21239;SDS011;10778;48.962;9.018;2022-10-31T03:45:08;13.93;;;7.93;;
21239;SDS011;10778;48.962;9.018;2022-10-31T03:47:40;17.60;;;8.60;;
21239;SDS011;10778;48.962;9.018;2022-10-31T03:50:09;21.38;;;9.10;;
21239;SDS011;10778;48.962;9.018;2022-10-31T03:52:47;15.02;;;8.57;;
21239;SDS011;10778;48.962;9.018;2022-10-31T03:55:41;15.00;;;8.18;;
21239;SDS011;10778;48.962;9.018;2022-10-31T03:58:11;11.50;;;7.07;;
21239;SDS011;10778;48.962;9.018;2022-10-31T04:00:44;9.30;;;6.22;;
21239;SDS011;10778;48.962;9.018;2022-10-31T04:03:15;9.18;;;6.07;;
21239;SDS011;10778;48.962;9.018;2022-10-31T04:05:48;8.85;;;5.93;;
21239;SDS011;10778;48.962;9.018;2022-10-31T04:08:19;9.75;;;6.72;;
21239;SDS011;10778;48.962;9.018;2022-10-31T04:10:49;9.35;;;6.65;;
21239;SDS011;10778;48.962;9.018;2022-10-31T04:13:24;8.18;;;6.53;;
21239;SDS011;10778;48.962;9.018;2022-10-31T04:16:01;9.25;;;6.28;;
21239;SDS011;10778;48.962;9.018;2022-10-31T04:18:28;9.07;;;6.88;;
21239;SDS011;10778;48.962;9.018;2022-10-31T04:21:01;9.85;;;6.60;;
21239;SDS011;10778;48.962;9.018;2022-10-31T04:23:32;10.32;;;6.57;;
21239;SDS011;10778;48.962;9.018;2022-10-31T04:26:05;8.55;;;6.40;;
21239;SDS011;10778;48.962;9.018;2022-10-31T04:28:31;10.60;;;6.70;;
21239;SDS011;10778;48.962;9.018;2022-10-31T04:30:59;8.65;;;6.47;;
21239;SDS011;10778;48.962;9.018;2022-10-31T04:33:27;9.43;;;6.70;;
21239;SDS011;10778;48.962;9.018;2022-10-31T04:35:54;8.15;;;6.30;;
21239;SDS011;10778;48.962;9.018;2022-10-31T04:38:20;12.43;;;7.40;;
21239;SDS011;10778;48.962;9.018;2022-10-31T04:40:48;10.57;;;6.68;;
21239;SDS011;10778;48.962;9.018;2022-10-31T04:43:14;11.55;;;7.18;;
21239;SDS011;10778;48.962;9.018;2022-10-31T04:45:43;10.68;;;6.82;;
21239;SDS011;10778;48.962;9.018;2022-10-31T04:48:09;11.70;;;7.18;;
21239;SDS011;10778;48.962;9.018;2022-10-31T04:50:38;10.77;;;6.72;;
21239;SDS011;10778;48.962;9.018;2022-10-31T04:53:04;8.27;;;6.40;;
21239;SDS011;10778;48.962;9.018;2022-10-31T04:55:38;9.02;;;5.72;;
21239;SDS011;10778;48.962;9.018;2022-10-31T04:58:24;7.22;;;5.45;;
21239;SDS011;10778;48.962;9.018;2022-10-31T05:00:53;8.52;;;5.35;;
21239;SDS011;10778;48.962;9.018;2022-10-31T05:03:20;7.65;;;5.63;;
21239;SDS011;10778;48.962;9.018;2022-10-31T05:05:47;10.18;;;5.75;;
21239;SDS011;10778;48.962;9.018;2022-10-31T05:08:13;9.90;;;5.90;;
21239;SDS011;10778;48.962;9.018;2022-10-31T05:10:40;12.52;;;6.13;;
21239;SDS011;10778;48.962;9.018;2022-10-31T05:13:06;10.98;;;6.95;;
21239;SDS011;10778;48.962;9.018;2022-10-31T05:15:58;14.05;;;6.97;;
21239;SDS011;10778;48.962;9.018;2022-10-31T05:18:30;12.05;;;7.63;;
21239;SDS011;10778;48.962;9.018;2022-10-31T05:21:34;13.32;;;7.32;;
21239;SDS011;10778;48.962;9.018;2022-10-31T05:24:02;11.68;;;6.72;;
21239;SDS011;10778;48.962;9.018;2022-10-31T05:26:29;11.68;;;6.63;;
21239;SDS011;10778;48.962;9.018;2022-10-31T05:28:55;12.93;;;7.40;;
21239;SDS011;10778;48.962;9.018;2022-10-31T05:31:22;11.77;;;8.07;;
21239;SDS011;10778;48.962;9.018;2022-10-31T05:33:49;11.77;;;7.93;;
21239;SDS011;10778;48.962;9.018;2022-10-31T05:36:41;14.75;;;7.90;;
21239;SDS011;10778;48.962;9.018;2022-10-31T05:39:15;11.57;;;7.45;;
21239;SDS011;10778;48.962;9.018;2022-10-31T05:41:54;11.52;;;7.03;;
21239;SDS011;10778;48.962;9.018;2022-10-31T05:44:25;15.15;;;7.57;;
21239;SDS011;10778;48.962;9.018;2022-10-31T05:47:13;11.45;;;7.20;;
21239;SDS011;10778;48.962;9.018;2022-10-31T05:49:59;10.20;;;6.72;;
21239;SDS011;10778;48.962;9.018;2022-10-31T05:52:45;11.55;;;7.53;;
21239;SDS011;10778;48.962;9.018;2022-10-31T05:55:34;10.00;;;6.78;;
21239;SDS011;10778;48.962;9.018;2022-10-31T05:58:12;11.40;;;6.13;;
21239;SDS011;10778;48.962;9.018;2022-10-31T06:00:42;11.88;;;6.95;;
21239;SDS011;10778;48.962;9.018;2022-10-31T06:03:09;9.95;;;6.53;;
21239;SDS011;10778;48.962;9.018;2022-10-31T06:05:43;10.13;;;6.95;;
21239;SDS011;10778;48.962;9.018;2022-10-31T06:08:10;12.13;;;7.32;;
21239;SDS011;10778;48.962;9.018;2022-10-31T06:10:38;13.25;;;7.53;;
21239;SDS011;10778;48.962;9.018;2022-10-31T06:13:04;11.80;;;7.40;;
21239;SDS011;10778;48.962;9.018;2022-10-31T06:15:44;11.75;;;6.32;;
21239;SDS011;10778;48.962;9.018;2022-10-31T06:18:12;11.88;;;7.57;;
21239;SDS011;10778;48.962;9.018;2022-10-31T06:20:46;11.25;;;7.90;;
21239;SDS011;10778;48.962;9.018;2022-10-31T06:23:12;12.55;;;7.18;;
21239;SDS011;10778;48.962;9.018;2022-10-31T06:25:40;13.80;;;7.30;;
21239;SDS011;10778;48.962;9.018;2022-10-31T06:28:07;12.30;;;7.07;;
21239;SDS011;10778;48.962;9.018;2022-10-31T06:30:48;13.10;;;6.93;;
21239;SDS011;10778;48.962;9.018;2022-10-31T06:33:15;12.90;;;6.78;;
21239;SDS011;10778;48.962;9.018;2022-10-31T06:35:48;9.85;;;6.05;;
21239;SDS011;10778;48.962;9.018;2022-10-31T06:38:15;9.27;;;6.18;;
21239;SDS011;10778;48.962;9.018;2022-10-31T06:40:42;9.73;;;6.53;;
21239;SDS011;10778;48.962;9.018;2022-10-31T06:43:22;11.55;;;7.18;;
21239;SDS011;10778;48.962;9.018;2022-10-31T06:45:50;10.10;;;6.93;;
21239;SDS011;10778;48.962;9.018;2022-10-31T06:48:22;10.55;;;7.00;;
21239;SDS011;10778;48.962;9.018;2022-10-31T06:51:14;10.80;;;6.90;;
21239;SDS011;10778;48.962;9.018;2022-10-31T06:53:41;8.10;;;6.35;;
21239;SDS011;10778;48.962;9.018;2022-10-31T06:56:09;10.27;;;6.30;;
21239;SDS011;10778;48.962;9.018;2022-10-31T06:58:41;8.95;;;5.90;;
21239;SDS011;10778;48.962;9.018;2022-10-31T07:01:08;11.02;;;6.00;;
21239;SDS011;10778;48.962;9.018;2022-10-31T07:03:34;8.07;;;5.78;;
21239;SDS011;10778;48.962;9.018;2022-10-31T07:06:01;10.98;;;6.43;;
21239;SDS011;10778;48.962;9.018;2022-10-31T07:08:27;12.50;;;7.20;;
21239;SDS011;10778;48.962;9.018;2022-10-31T07:10:55;13.52;;;8.13;;
21239;SDS011;10778;48.962;9.018;2022-10-31T07:13:24;17.10;;;10.88;;
21239;SDS011;10778;48.962;9.018;2022-10-31T07:16:03;13.23;;;9.30;;
21239;SDS011;10778;48.962;9.018;2022-10-31T07:18:33;20.05;;;10.30;;
21239;SDS011;10778;48.962;9.018;2022-10-31T07:20:59;13.25;;;7.43;;
21239;SDS011;10778;48.962;9.018;2022-10-31T07:23:26;14.00;;;8.60;;
21239;SDS011;10778;48.962;9.018;2022-10-31T07:26:10;13.13;;;6.80;;
21239;SDS011;10778;48.962;9.018;2022-10-31T07:28:42;13.80;;;8.00;;
21239;SDS011;10778;48.962;9.018;2022-10-31T07:31:08;11.10;;;7.10;;
21239;SDS011;10778;48.962;9.018;2022-10-31T07:33:38;10.98;;;7.35;;
21239;SDS011;10778;48.962;9.018;2022-10-31T07:36:36;11.75;;;6.72;;
21239;SDS011;10778;48.962;9.018;2022-10-31T07:39:03;9.30;;;6.40;;
21239;SDS011;10778;48.962;9.018;2022-10-31T07:41:32;8.13;;;6.10;;
21239;SDS011;10778;48.962;9.018;2022-10-31T07:43:58;10.25;;;5.97;;
21239;SDS011;10778;48.962;9.018;2022-10-31T07:46:42;14.63;;;7.30;;
21239;SDS011;10778;48.962;9.018;2022-10-31T07:49:44;11.20;;;6.70;;
21239;SDS011;10778;48.962;9.018;2022-10-31T07:52:28;12.43;;;6.97;;
21239;SDS011;10778;48.962;9.018;2022-10-31T07:54:54;9.88;;;6.85;;
21239;SDS011;10778;48.962;9.018;2022-10-31T07:57:23;9.43;;;5.70;;
21239;SDS011;10778;48.962;9.018;2022-10-31T07:59:49;7.78;;;5.90;;
21239;SDS011;10778;48.962;9.018;2022-10-31T08:02:17;8.38;;;5.85;;
21239;SDS011;10778;48.962;9.018;2022-10-31T08:04:46;7.40;;;5.40;;
21239;SDS011;10778;48.962;9.018;2022-10-31T08:07:35;7.07;;;4.90;;
21239;SDS011;10778;48.962;9.018;2022-10-31T08:10:04;6.97;;;4.70;;
21239;SDS011;10778;48.962;9.018;2022-10-31T08:12:31;8.57;;;5.05;;
21239;SDS011;10778;48.962;9.018;2022-10-31T08:14:57;7.57;;;4.93;;
21239;SDS011;10778;48.962;9.018;2022-10-31T08:17:23;8.60;;;5.10;;
21239;SDS011;10778;48.962;9.018;2022-10-31T08:19:55;8.45;;;5.57;;
21239;SDS011;10778;48.962;9.018;2022-10-31T08:22:26;9.13;;;5.10;;
21239;SDS011;10778;48.962;9.018;2022-10-31T08:24:52;7.30;;;5.03;;
21239;SDS011;10778;48.962;9.018;2022-10-31T08:27:18;9.07;;;5.30;;
21239;SDS011;10778;48.962;9.018;2022-10-31T08:29:45;8.82;;;5.18;;
21239;SDS011;10778;48.962;9.018;2022-10-31T08:32:11;9.55;;;5.53;;
21239;SDS011;10778;48.962;9.018;2022-10-31T08:35:04;9.43;;;5.53;;
21239;SDS011;10778;48.962;9.018;2022-10-31T08:38:11;11.73;;;5.55;;
21239;SDS011;10778;48.962;9.018;2022-10-31T08:40:39;13.90;;;9.15;;
21239;SDS011;10778;48.962;9.018;2022-10-31T08:43:08;24.33;;;13.18;;
21239;SDS011;10778;48.962;9.018;2022-10-31T08:45:37;25.33;;;13.70;;
21239;SDS011;10778;48.962;9.018;2022-10-31T08:48:08;16.95;;;8.85;;
21239;SDS011;10778;48.962;9.018;2022-10-31T08:50:36;13.57;;;6.60;;
21239;SDS011;10778;48.962;9.018;2022-10-31T08:53:04;9.15;;;6.25;;
21239;SDS011;10778;48.962;9.018;2022-10-31T08:55:33;12.57;;;6.60;;
21239;SDS011;10778;48.962;9.018;2022-10-31T08:58:06;9.55;;;6.57;;
21239;SDS011;10778;48.962;9.018;2022-10-31T09:00:41;9.75;;;6.13;;
21239;SDS011;10778;48.962;9.018;2022-10-31T09:03:22;14.98;;;7.20;;
21239;SDS011;10778;48.962;9.018;2022-10-31T09:05:50;10.88;;;6.60;;
21239;SDS011;10778;48.962;9.018;2022-10-31T09:08:16;8.85;;;6.45;;
21239;SDS011;10778;48.962;9.018;2022-10-31T09:10:44;12.20;;;6.40;;
21239;SDS011;10778;48.962;9.018;2022-10-31T09:13:14;14.50;;;6.60;;
21239;SDS011;10778;48.962;9.018;2022-10-31T09:16:05;11.43;;;6.85;;
21239;SDS011;10778;48.962;9.018;2022-10-31T09:18:33;12.98;;;7.43;;
21239;SDS011;10778;48.962;9.018;2022-10-31T09:20:59;15.15;;;8.05;;
21239;SDS011;10778;48.962;9.018;2022-10-31T09:23:29;13.68;;;7.53;;
21239;SDS011;10778;48.962;9.018;2022-10-31T09:25:55;14.75;;;7.47;;
21239;SDS011;10778;48.962;9.018;2022-10-31T09:28:36;11.77;;;7.45;;
21239;SDS011;10778;48.962;9.018;2022-10-31T09:31:08;13.52;;;7.22;;
21239;SDS011;10778;48.962;9.018;2022-10-31T09:33:53;12.50;;;7.68;;
21239;SDS011;10778;48.962;9.018;2022-10-31T09:36:36;13.15;;;7.65;;
21239;SDS011;10778;48.962;9.018;2022-10-31T09:39:05;25.10;;;8.65;;
21239;SDS011;10778;48.962;9.018;2022-10-31T09:47:21;25.92;;;8.63;;
21239;SDS011;10778;48.962;9.018;2022-10-31T09:50:20;21.27;;;7.90;;
21239;SDS011;10778;48.962;9.018;2022-10-31T09:52:54;17.38;;;7.88;;
21239;SDS011;10778;48.962;9.018;2022-10-31T09:55:39;16.92;;;8.32;;
21239;SDS011;10778;48.962;9.018;2022-10-31T09:58:13;12.13;;;7.13;;
21239;SDS011;10778;48.962;9.018;2022-10-31T10:00:42;12.85;;;7.20;;
21239;SDS011;10778;48.962;9.018;2022-10-31T10:06:01;14.65;;;7.35;;
21239;SDS011;10778;48.962;9.018;2022-10-31T10:08:52;13.05;;;7.88;;
21239;SDS011;10778;48.962;9.018;2022-10-31T10:16:51;12.82;;;7.57;;
21239;SDS011;10778;48.962;9.018;2022-10-31T10:20:21;12.85;;;7.97;;
21239;SDS011;10778;48.962;9.018;2022-10-31T10:25:42;14.60;;;7.75;;
21239;SDS011;10778;48.962;9.018;2022-10-31T10:28:26;21.10;;;9.15;;
21239;SDS011;10778;48.962;9.018;2022-10-31T10:31:18;18.13;;;9.27;;
21239;SDS011;10778;48.962;9.018;2022-10-31T10:36:30;20.48;;;10.55;;
21239;SDS011;10778;48.962;9.018;2022-10-31T10:39:40;18.80;;;9.18;;
21239;SDS011;10778;48.962;9.018;2022-10-31T10:41:49;13.85;;;7.78;;
21239;SDS011;10778;48.962;9.018;2022-10-31T10:44:39;15.48;;;7.72;;
21239;SDS011;10778;48.962;9.018;2022-10-31T10:47:29;14.75;;;8.02;;
21239;SDS011;10778;48.962;9.018;2022-10-31T10:50:17;14.85;;;7.93;;
21239;SDS011;10778;48.962;9.018;2022-10-31T10:52:53;15.32;;;7.70;;
21239;SDS011;10778;48.962;9.018;2022-10-31T10:58:08;13.15;;;7.72;;
21239;SDS011;10778;48.962;9.018;2022-10-31T11:00:38;15.18;;;7.78;;
21239;SDS011;10778;48.962;9.018;2022-10-31T11:03:04;15.63;;;8.15;;
21239;SDS011;10778;48.962;9.018;2022-10-31T11:05:47;43.88;;;10.85;;
21239;SDS011;10778;48.962;9.018;2022-10-31T11:08:28;31.50;;;9.82;;
21239;SDS011;10778;48.962;9.018;2022-10-31T11:13:26;15.95;;;8.02;;
21239;SDS011;10778;48.962;9.018;2022-10-31T11:18:32;13.52;;;7.68;;
21239;SDS011;10778;48.962;9.018;2022-10-31T11:21:00;20.10;;;8.00;;
21239;SDS011;10778;48.962;9.018;2022-10-31T11:23:29;13.60;;;7.05;;
21239;SDS011;10778;48.962;9.018;2022-10-31T11:25:57;14.50;;;7.82;;
21239;SDS011;10778;48.962;9.018;2022-10-31T11:28:24;13.02;;;8.05;;
21239;SDS011;10778;48.962;9.018;2022-10-31T11:31:05;16.20;;;8.15;;
21239;SDS011;10778;48.962;9.018;2022-10-31T11:33:36;16.30;;;7.53;;
21239;SDS011;10778;48.962;9.018;2022-10-31T11:38:55;37.38;;;10.20;;
21239;SDS011;10778;48.962;9.018;2022-10-31T11:43:58;13.18;;;8.15;;
21239;SDS011;10778;48.962;9.018;2022-10-31T11:49:02;15.20;;;8.13;;
21239;SDS011;10778;48.962;9.018;2022-10-31T11:51:31;13.48;;;8.20;;
21239;SDS011;10778;48.962;9.018;2022-10-31T11:54:00;17.50;;;8.90;;
21239;SDS011;10778;48.962;9.018;2022-10-31T11:56:37;15.43;;;8.55;;
21239;SDS011;10778;48.962;9.018;2022-10-31T11:59:05;15.25;;;8.63;;
21239;SDS011;10778;48.962;9.018;2022-10-31T12:01:45;19.33;;;8.50;;
21239;SDS011;10778;48.962;9.018;2022-10-31T12:04:13;16.90;;;8.65;;
21239;SDS011;10778;48.962;9.018;2022-10-31T12:06:40;16.65;;;9.13;;
21239;SDS011;10778;48.962;9.018;2022-10-31T12:11:49;17.35;;;8.80;;
21239;SDS011;10778;48.962;9.018;2022-10-31T12:17:31;15.98;;;8.63;;
21239;SDS011;10778;48.962;9.018;2022-10-31T12:20:03;19.38;;;9.07;;
21239;SDS011;10778;48.962;9.018;2022-10-31T12:22:52;14.30;;;8.57;;
21239;SDS011;10778;48.962;9.018;2022-10-31T12:28:04;22.42;;;9.38;;
21239;SDS011;10778;48.962;9.018;2022-10-31T12:36:50;14.77;;;8.63;;
21239;SDS011;10778;48.962;9.018;2022-10-31T12:44:35;14.85;;;9.43;;
21239;SDS011;10778;48.962;9.018;2022-10-31T13:02:00;14.63;;;8.18;;
21239;SDS011;10778;48.962;9.018;2022-10-31T13:07:16;15.02;;;8.65;;
21239;SDS011;10778;48.962;9.018;2022-10-31T13:10:14;18.67;;;9.43;;
21239;SDS011;10778;48.962;9.018;2022-10-31T13:12:52;13.48;;;8.40;;
21239;SDS011;10778;48.962;9.018;2022-10-31T13:15:23;13.52;;;8.15;;
21239;SDS011;10778;48.962;9.018;2022-10-31T13:17:54;18.45;;;9.27;;
21239;SDS011;10778;48.962;9.018;2022-10-31T13:20:33;19.98;;;9.50;;
21239;SDS011;10778;48.962;9.018;2022-10-31T13:23:10;13.80;;;9.50;;
21239;SDS011;10778;48.962;9.018;2022-10-31T13:25:46;12.82;;;8.95;;
21239;SDS011;10778;48.962;9.018;2022-10-31T13:30:46;13.30;;;8.23;;
21239;SDS011;10778;48.962;9.018;2022-10-31T13:33:19;24.33;;;9.25;;
21239;SDS011;10778;48.962;9.018;2022-10-31T13:46:53;15.20;;;8.50;;
21239;SDS011;10778;48.962;9.018;2022-10-31T13:52:11;13.18;;;7.90;;
21239;SDS011;10778;48.962;9.018;2022-10-31T13:54:39;18.55;;;8.52;;
21239;SDS011;10778;48.962;9.018;2022-10-31T13:57:16;15.88;;;7.65;;
21239;SDS011;10778;48.962;9.018;2022-10-31T14:00:04;15.65;;;9.10;;
21239;SDS011;10778;48.962;9.018;2022-10-31T14:02:43;13.35;;;8.40;;
21239;SDS011;10778;48.962;9.018;2022-10-31T14:05:22;18.23;;;8.93;;
21239;SDS011;10778;48.962;9.018;2022-10-31T14:07:59;14.25;;;8.50;;
21239;SDS011;10778;48.962;9.018;2022-10-31T14:10:29;16.02;;;8.15;;
21239;SDS011;10778;48.962;9.018;2022-10-31T14:13:07;13.43;;;7.30;;
21239;SDS011;10778;48.962;9.018;2022-10-31T14:15:41;16.88;;;8.05;;
21239;SDS011;10778;48.962;9.018;2022-10-31T14:18:24;16.13;;;8.30;;
21239;SDS011;10778;48.962;9.018;2022-10-31T14:20:55;15.65;;;8.25;;
21239;SDS011;10778;48.962;9.018;2022-10-31T14:25:54;18.30;;;8.98;;
21239;SDS011;10778;48.962;9.018;2022-10-31T14:28:53;14.85;;;8.82;;
21239;SDS011;10778;48.962;9.018;2022-10-31T14:31:29;15.27;;;7.88;;
21239;SDS011;10778;48.962;9.018;2022-10-31T14:33:59;15.60;;;7.75;;
21239;SDS011;10778;48.962;9.018;2022-10-31T14:36:35;14.40;;;7.65;;
21239;SDS011;10778;48.962;9.018;2022-10-31T14:48:10;19.83;;;8.68;;
21239;SDS011;10778;48.962;9.018;2022-10-31T14:50:48;17.98;;;8.32;;
21239;SDS011;10778;48.962;9.018;2022-10-31T14:53:27;12.20;;;8.23;;
21239;SDS011;10778;48.962;9.018;2022-10-31T14:55:56;13.55;;;7.88;;
21239;SDS011;10778;48.962;9.018;2022-10-31T14:58:28;15.20;;;8.60;;
21239;SDS011;10778;48.962;9.018;2022-10-31T15:01:03;15.15;;;8.50;;
21239;SDS011;10778;48.962;9.018;2022-10-31T15:03:34;14.68;;;7.72;;
21239;SDS011;10778;48.962;9.018;2022-10-31T15:06:09;22.50;;;9.32;;
21239;SDS011;10778;48.962;9.018;2022-10-31T15:08:45;86.90;;;17.08;;
21239;SDS011;10778;48.962;9.018;2022-10-31T15:11:14;60.33;;;13.40;;
21239;SDS011;10778;48.962;9.018;2022-10-31T15:13:53;17.67;;;9.05;;
21239;SDS011;10778;48.962;9.018;2022-10-31T15:16:25;28.17;;;11.25;;
21239;SDS011;10778;48.962;9.018;2022-10-31T15:18:56;28.73;;;9.82;;
21239;SDS011;10778;48.962;9.018;2022-10-31T15:21:26;23.70;;;9.82;;
21239;SDS011;10778;48.962;9.018;2022-10-31T15:23:54;19.67;;;11.02;;
21239;SDS011;10778;48.962;9.018;2022-10-31T15:26:25;24.83;;;11.18;;
21239;SDS011;10778;48.962;9.018;2022-10-31T15:28:58;23.35;;;10.75;;
21239;SDS011;10778;48.962;9.018;2022-10-31T15:31:29;23.00;;;10.27;;
21239;SDS011;10778;48.962;9.018;2022-10-31T15:33:58;266.83;;;34.90;;
21239;SDS011;10778;48.962;9.018;2022-10-31T15:36:28;78.63;;;16.80;;
21239;SDS011;10778;48.962;9.018;2022-10-31T15:38:57;61.67;;;15.73;;
21239;SDS011;10778;48.962;9.018;2022-10-31T15:41:28;61.60;;;15.70;;
21239;SDS011;10778;48.962;9.018;2022-10-31T15:44:24;45.67;;;13.63;;
21239;SDS011;10778;48.962;9.018;2022-10-31T15:49:40;30.27;;;12.80;;
21239;SDS011;10778;48.962;9.018;2022-10-31T15:52:34;17.52;;;10.07;;
21239;SDS011;10778;48.962;9.018;2022-10-31T15:55:19;22.42;;;10.93;;
21239;SDS011;10778;48.962;9.018;2022-10-31T15:57:48;23.15;;;11.00;;
21239;SDS011;10778;48.962;9.018;2022-10-31T16:00:30;35.80;;;11.43;;
21239;SDS011;10778;48.962;9.018;2022-10-31T16:03:05;20.77;;;12.02;;
21239;SDS011;10778;48.962;9.018;2022-10-31T16:05:39;21.63;;;11.25;;
21239;SDS011;10778;48.962;9.018;2022-10-31T16:08:26;18.70;;;9.65;;
21239;SDS011;10778;48.962;9.018;2022-10-31T16:10:58;25.30;;;10.13;;
21239;SDS011;10778;48.962;9.018;2022-10-31T16:13:26;24.48;;;12.32;;
21239;SDS011;10778;48.962;9.018;2022-10-31T16:15:55;25.67;;;13.73;;
21239;SDS011;10778;48.962;9.018;2022-10-31T16:18:25;28.25;;;12.48;;
21239;SDS011;10778;48.962;9.018;2022-10-31T16:20:53;27.02;;;9.98;;
21239;SDS011;10778;48.962;9.018;2022-10-31T16:23:21;19.40;;;9.75;;
21239;SDS011;10778;48.962;9.018;2022-10-31T16:25:50;21.88;;;11.27;;
21239;SDS011;10778;48.962;9.018;2022-10-31T16:28:18;19.88;;;10.32;;
21239;SDS011;10778;48.962;9.018;2022-10-31T16:30:47;16.02;;;9.20;;
21239;SDS011;10778;48.962;9.018;2022-10-31T16:36:28;12.95;;;7.72;;
21239;SDS011;10778;48.962;9.018;2022-10-31T16:38:55;13.20;;;7.97;;
21239;SDS011;10778;48.962;9.018;2022-10-31T16:41:22;14.80;;;8.23;;
21239;SDS011;10778;48.962;9.018;2022-10-31T16:43:50;16.58;;;9.23;;
21239;SDS011;10778;48.962;9.018;2022-10-31T16:46:25;21.45;;;12.35;;
21239;SDS011;10778;48.962;9.018;2022-10-31T16:48:53;16.50;;;12.52;;
21239;SDS011;10778;48.962;9.018;2022-10-31T16:51:20;20.30;;;14.48;;
21239;SDS011;10778;48.962;9.018;2022-10-31T16:53:46;25.60;;;17.75;;
21239;SDS011;10778;48.962;9.018;2022-10-31T16:56:17;24.00;;;17.13;;
21239;SDS011;10778;48.962;9.018;2022-10-31T16:58:53;29.15;;;19.65;;
21239;SDS011;10778;48.962;9.018;2022-10-31T17:01:19;25.23;;;16.35;;
21239;SDS011;10778;48.962;9.018;2022-10-31T17:03:45;19.90;;;11.98;;
21239;SDS011;10778;48.962;9.018;2022-10-31T17:06:11;19.95;;;13.32;;
21239;SDS011;10778;48.962;9.018;2022-10-31T17:08:38;24.75;;;17.20;;
21239;SDS011;10778;48.962;9.018;2022-10-31T17:11:05;47.13;;;37.08;;
21239;SDS011;10778;48.962;9.018;2022-10-31T17:13:31;44.72;;;35.10;;
21239;SDS011;10778;48.962;9.018;2022-10-31T17:16:00;46.60;;;36.15;;
21239;SDS011;10778;48.962;9.018;2022-10-31T17:18:27;38.67;;;30.63;;
21239;SDS011;10778;48.962;9.018;2022-10-31T17:21:03;38.28;;;29.00;;
21239;SDS011;10778;48.962;9.018;2022-10-31T17:23:33;43.97;;;31.35;;
21239;SDS011;10778;48.962;9.018;2022-10-31T17:26:00;43.30;;;31.27;;
21239;SDS011;10778;48.962;9.018;2022-10-31T17:28:26;43.80;;;32.05;;
21239;SDS011;10778;48.962;9.018;2022-10-31T17:30:53;40.00;;;30.60;;